createdAt,value
2016-05-07T00:00:27.874Z,17.9
2016-05-07T00:01:27.564Z,17.9
2016-05-07T00:02:27.911Z,17.87
2016-05-07T00:03:27.945Z,17.87
2016-05-07T00:04:27.962Z,17.87
2016-05-07T00:05:28.012Z,17.79
2016-05-07T00:06:27.859Z,17.72
2016-05-07T00:07:27.893Z,17.76
2016-05-07T00:08:28.067Z,17.76
2016-05-07T00:09:27.945Z,17.72
2016-05-07T00:10:28.119Z,17.7
2016-05-07T00:11:28.139Z,17.7
2016-05-07T00:12:28.172Z,17.74
2016-05-07T00:13:28.190Z,17.68
2016-05-07T00:14:28.225Z,17.72
2016-05-07T00:15:28.242Z,17.68
2016-05-07T00:16:28.260Z,17.64
2016-05-07T00:17:28.294Z,17.65
2016-05-07T00:18:28.329Z,17.65
2016-05-07T00:19:28.191Z,17.64
2016-05-07T00:20:28.210Z,17.59
2016-05-07T00:21:28.399Z,17.67
2016-05-07T00:22:28.418Z,17.64
2016-05-07T00:23:28.435Z,17.52
2016-05-07T00:24:28.454Z,17.51
2016-05-07T00:25:28.488Z,17.54
2016-05-07T00:26:28.522Z,17.57
2016-05-07T00:27:28.384Z,17.52
2016-05-07T00:28:28.574Z,17.51
2016-05-07T00:29:28.592Z,17.57
2016-05-07T00:30:28.471Z,17.48
2016-05-07T00:31:28.645Z,17.57
2016-05-07T00:32:28.663Z,17.52
2016-05-07T00:33:28.697Z,17.48
2016-05-07T00:34:28.731Z,17.39
2016-05-07T00:35:28.750Z,17.34
2016-05-07T00:36:28.767Z,17.34
2016-05-07T00:37:28.787Z,17.38
2016-05-07T00:38:28.820Z,17.33
2016-05-07T00:39:28.854Z,17.34
2016-05-07T00:40:28.856Z,17.34
2016-05-07T00:41:28.906Z,17.36
2016-05-07T00:42:29.049Z,17.34
2016-05-07T00:43:28.942Z,17.23
2016-05-07T00:44:28.961Z,17.16
2016-05-07T00:45:28.995Z,17.23
2016-05-07T00:46:29.013Z,17.19
2016-05-07T00:47:29.047Z,17.23
2016-05-07T00:48:28.910Z,17.2
2016-05-07T00:49:28.927Z,17.16
2016-05-07T00:50:29.118Z,17.14
2016-05-07T00:51:29.152Z,17.2
2016-05-07T00:52:29.170Z,17.12
2016-05-07T00:53:29.188Z,17.06
2016-05-07T00:54:29.066Z,17.11
2016-05-07T00:55:29.241Z,17.15
2016-05-07T00:56:29.103Z,17.14
2016-05-07T00:57:29.292Z,17.02
2016-05-07T00:58:29.155Z,17.05
2016-05-07T00:59:29.329Z,17.02
2016-05-07T01:00:29.363Z,17.11
2016-05-07T01:01:29.381Z,17.06
2016-05-07T01:02:29.259Z,17.14
2016-05-07T01:03:29.434Z,17.09
2016-05-07T01:04:29.468Z,16.94
2016-05-07T01:05:29.331Z,16.99
2016-05-07T01:06:29.504Z,16.89
2016-05-07T01:07:29.539Z,16.99
2016-05-07T01:08:29.556Z,16.97
2016-05-07T01:09:29.575Z,17.01
2016-05-07T01:10:29.609Z,16.97
2016-05-07T01:11:29.643Z,16.86
2016-05-07T01:12:30.067Z,16.96
2016-05-07T01:13:29.680Z,16.9
2016-05-07T01:14:29.698Z,16.9
2016-05-07T01:15:29.732Z,16.79
2016-05-07T01:16:29.750Z,16.86
2016-05-07T01:17:29.784Z,16.79
2016-05-07T01:18:29.802Z,16.86
2016-05-07T01:19:29.821Z,16.83
2016-05-07T01:20:29.870Z,16.78
2016-05-07T01:21:29.874Z,16.89
2016-05-07T01:22:29.891Z,16.84
2016-05-07T01:23:29.925Z,16.79
2016-05-07T01:24:29.787Z,16.72
2016-05-07T01:25:29.963Z,16.75
2016-05-07T01:26:29.995Z,16.69
2016-05-07T01:27:30.015Z,16.75
2016-05-07T01:28:30.049Z,16.65
2016-05-07T01:29:30.066Z,16.61
2016-05-07T01:30:30.084Z,16.72
2016-05-07T01:31:30.119Z,16.61
2016-05-07T01:32:30.137Z,16.65
2016-05-07T01:33:30.171Z,16.65
2016-05-07T01:34:30.190Z,16.6
2016-05-07T01:35:30.207Z,16.54
2016-05-07T01:36:30.242Z,16.57
2016-05-07T01:37:30.259Z,16.56
2016-05-07T01:38:30.278Z,16.51
2016-05-07T01:39:30.312Z,16.51
2016-05-07T01:40:30.331Z,16.57
2016-05-07T01:41:30.279Z,16.43
2016-05-07T01:42:30.395Z,16.43
2016-05-07T01:43:30.430Z,16.46
2016-05-07T01:44:30.272Z,16.46
2016-05-07T01:45:30.478Z,16.42
2016-05-07T01:46:30.324Z,16.43
2016-05-07T01:47:30.499Z,16.42
2016-05-07T01:48:30.517Z,16.42
2016-05-07T01:49:30.550Z,16.35
2016-05-07T01:50:30.570Z,16.33
2016-05-07T01:51:30.587Z,16.42
2016-05-07T01:52:30.480Z,16.24
2016-05-07T01:53:30.656Z,16.33
2016-05-07T01:54:30.673Z,16.31
2016-05-07T01:55:30.551Z,16.26
2016-05-07T01:56:30.726Z,16.29
2016-05-07T01:57:30.775Z,16.24
2016-05-07T01:58:30.763Z,16.28
2016-05-07T01:59:30.641Z,16.29
2016-05-07T02:00:30.799Z,16.16
2016-05-07T02:01:30.833Z,16.24
2016-05-07T02:02:30.867Z,16.16
2016-05-07T02:03:30.713Z,16.15
2016-05-07T02:04:30.747Z,16.23
2016-05-07T02:05:30.782Z,16.15
2016-05-07T02:06:30.800Z,16.16
2016-05-07T02:07:30.974Z,16.09
2016-05-07T02:08:31.008Z,16.12
2016-05-07T02:09:30.870Z,16.05
2016-05-07T02:10:31.045Z,16.08
2016-05-07T02:11:31.079Z,16.13
2016-05-07T02:12:31.597Z,16.04
2016-05-07T02:13:31.115Z,16.08
2016-05-07T02:14:31.149Z,16
2016-05-07T02:15:31.167Z,16
2016-05-07T02:16:31.187Z,16.02
2016-05-07T02:17:31.220Z,15.98
2016-05-07T02:18:31.238Z,15.91
2016-05-07T02:19:31.256Z,16.05
2016-05-07T02:20:31.275Z,16.04
2016-05-07T02:21:31.308Z,16.01
2016-05-07T02:22:31.328Z,15.92
2016-05-07T02:23:31.361Z,15.97
2016-05-07T02:24:31.382Z,15.94
2016-05-07T02:25:31.401Z,15.98
2016-05-07T02:26:31.278Z,15.95
2016-05-07T02:27:32.031Z,15.9
2016-05-07T02:28:31.487Z,15.92
2016-05-07T02:29:31.537Z,15.91
2016-05-07T02:30:31.523Z,15.86
2016-05-07T02:31:31.572Z,15.76
2016-05-07T02:32:31.575Z,15.76
2016-05-07T02:33:31.610Z,15.79
2016-05-07T02:34:31.612Z,15.79
2016-05-07T02:35:31.647Z,15.82
2016-05-07T02:36:31.508Z,15.73
2016-05-07T02:37:31.713Z,15.73
2016-05-07T02:38:31.717Z,15.76
2016-05-07T02:39:31.580Z,15.7
2016-05-07T02:40:31.597Z,15.79
2016-05-07T02:41:31.772Z,15.68
2016-05-07T02:42:32.430Z,15.67
2016-05-07T02:43:31.824Z,15.64
2016-05-07T02:44:31.858Z,15.65
2016-05-07T02:45:31.721Z,15.65
2016-05-07T02:46:31.894Z,15.64
2016-05-07T02:47:31.913Z,15.67
2016-05-07T02:48:31.962Z,15.59
2016-05-07T02:49:31.965Z,15.62
2016-05-07T02:50:31.984Z,15.65
2016-05-07T02:51:32.018Z,15.59
2016-05-07T02:52:32.035Z,15.68
2016-05-07T02:53:31.898Z,15.61
2016-05-07T02:54:31.932Z,15.51
2016-05-07T02:55:32.106Z,15.55
2016-05-07T02:56:31.984Z,15.52
2016-05-07T02:57:32.159Z,15.49
2016-05-07T02:58:32.176Z,15.54
2016-05-07T02:59:32.226Z,15.54
2016-05-07T03:00:32.229Z,15.54
2016-05-07T03:01:32.247Z,15.58
2016-05-07T03:02:32.109Z,15.47
2016-05-07T03:03:32.284Z,15.44
2016-05-07T03:04:32.318Z,15.47
2016-05-07T03:05:32.336Z,15.47
2016-05-07T03:06:32.370Z,15.47
2016-05-07T03:07:32.388Z,15.42
2016-05-07T03:08:32.250Z,15.46
2016-05-07T03:09:32.441Z,15.39
2016-05-07T03:10:32.475Z,15.37
2016-05-07T03:11:32.493Z,15.35
2016-05-07T03:12:32.871Z,15.44
2016-05-07T03:13:32.529Z,15.31
2016-05-07T03:14:32.549Z,15.36
2016-05-07T03:15:32.410Z,15.36
2016-05-07T03:16:32.585Z,15.33
2016-05-07T03:17:32.462Z,15.35
2016-05-07T03:18:32.496Z,15.24
2016-05-07T03:19:32.498Z,15.28
2016-05-07T03:20:32.377Z,15.37
2016-05-07T03:21:32.707Z,15.27
2016-05-07T03:22:32.726Z,15.28
2016-05-07T03:23:32.759Z,15.24
2016-05-07T03:24:32.779Z,15.25
2016-05-07T03:25:32.796Z,15.18
2016-05-07T03:26:32.659Z,15.25
2016-05-07T03:27:33.239Z,15.25
2016-05-07T03:28:32.711Z,15.19
2016-05-07T03:29:32.744Z,15.24
2016-05-07T03:30:32.763Z,15.25
2016-05-07T03:31:32.953Z,15.22
2016-05-07T03:32:32.972Z,15.21
2016-05-07T03:33:32.989Z,15.22
2016-05-07T03:34:32.868Z,15.21
2016-05-07T03:35:33.058Z,15.22
2016-05-07T03:36:33.061Z,15.18
2016-05-07T03:37:33.094Z,15.21
2016-05-07T03:38:33.113Z,15.07
2016-05-07T03:39:33.130Z,15.17
2016-05-07T03:40:32.884Z,15.15
2016-05-07T03:41:33.167Z,15.06
2016-05-07T03:42:34.669Z,15.07
2016-05-07T03:43:33.219Z,15.14
2016-05-07T03:44:33.238Z,15.11
2016-05-07T03:45:33.257Z,15.04
2016-05-07T03:46:33.306Z,15.04
2016-05-07T03:47:33.308Z,15.11
2016-05-07T03:48:33.327Z,15.06
2016-05-07T03:49:33.361Z,15.02
2016-05-07T03:50:33.379Z,15.02
2016-05-07T03:51:33.398Z,15.07
2016-05-07T03:52:33.275Z,15.02
2016-05-07T03:53:33.340Z,15
2016-05-07T03:54:33.312Z,15.03
2016-05-07T03:55:33.564Z,15
2016-05-07T03:56:33.365Z,15.02
2016-05-07T03:57:34.007Z,14.99
2016-05-07T03:58:33.557Z,14.97
2016-05-07T03:59:33.590Z,15
2016-05-07T04:00:33.593Z,15
2016-05-07T04:01:33.628Z,14.99
2016-05-07T04:02:33.489Z,14.94
2016-05-07T04:03:33.508Z,14.92
2016-05-07T04:04:33.698Z,15.02
2016-05-07T04:05:33.732Z,14.96
2016-05-07T04:06:33.734Z,14.92
2016-05-07T04:07:33.769Z,14.94
2016-05-07T04:08:33.631Z,14.94
2016-05-07T04:09:33.821Z,14.94
2016-05-07T04:10:33.839Z,14.89
2016-05-07T04:11:33.702Z,14.94
2016-05-07T04:12:33.891Z,14.89
2016-05-07T04:13:33.894Z,14.86
2016-05-07T04:14:33.913Z,14.85
2016-05-07T04:15:33.930Z,14.88
2016-05-07T04:16:33.965Z,14.82
2016-05-07T04:17:33.999Z,14.86
2016-05-07T04:18:34.033Z,14.85
2016-05-07T04:19:34.035Z,14.84
2016-05-07T04:20:34.054Z,14.77
2016-05-07T04:21:34.071Z,14.78
2016-05-07T04:22:34.090Z,14.85
2016-05-07T04:23:34.124Z,14.88
2016-05-07T04:24:33.987Z,14.89
2016-05-07T04:25:34.176Z,14.82
2016-05-07T04:26:34.413Z,14.81
2016-05-07T04:27:34.245Z,14.82
2016-05-07T04:28:34.247Z,14.78
2016-05-07T04:29:34.265Z,14.73
2016-05-07T04:30:34.284Z,14.81
2016-05-07T04:31:34.301Z,14.79
2016-05-07T04:32:34.320Z,14.81
2016-05-07T04:33:34.354Z,14.81
2016-05-07T04:34:34.372Z,14.78
2016-05-07T04:35:34.251Z,14.77
2016-05-07T04:36:34.425Z,14.73
2016-05-07T04:37:34.442Z,14.81
2016-05-07T04:38:34.462Z,14.82
2016-05-07T04:39:34.495Z,14.84
2016-05-07T04:40:34.513Z,14.77
2016-05-07T04:41:34.532Z,14.79
2016-05-07T04:42:34.786Z,14.82
2016-05-07T04:43:34.569Z,14.77
2016-05-07T04:44:34.602Z,14.79
2016-05-07T04:45:34.621Z,14.73
2016-05-07T04:46:36.296Z,14.73
2016-05-07T04:47:34.674Z,14.79
2016-05-07T04:48:34.535Z,14.79
2016-05-07T04:49:34.710Z,14.78
2016-05-07T04:50:34.744Z,14.78
2016-05-07T04:51:34.746Z,14.77
2016-05-07T04:52:34.780Z,14.78
2016-05-07T04:53:34.798Z,14.81
2016-05-07T04:54:34.817Z,14.78
2016-05-07T04:55:34.835Z,14.81
2016-05-07T04:56:34.885Z,14.81
2016-05-07T04:57:34.575Z,14.77
2016-05-07T04:58:34.749Z,14.81
2016-05-07T04:59:34.940Z,14.73
2016-05-07T05:00:34.959Z,14.84
2016-05-07T05:01:34.976Z,14.82
2016-05-07T05:02:35.010Z,14.78
2016-05-07T05:03:35.028Z,14.79
2016-05-07T05:04:34.891Z,14.79
2016-05-07T05:05:34.909Z,14.78
2016-05-07T05:06:35.099Z,14.77
2016-05-07T05:07:35.102Z,14.84
2016-05-07T05:08:35.136Z,14.81
2016-05-07T05:09:34.998Z,14.84
2016-05-07T05:10:35.189Z,14.82
2016-05-07T05:11:35.206Z,14.89
2016-05-07T05:12:35.178Z,14.85
2016-05-07T05:13:35.258Z,14.89
2016-05-07T05:14:35.277Z,14.91
2016-05-07T05:15:35.139Z,14.91
2016-05-07T05:16:35.330Z,14.99
2016-05-07T05:17:35.332Z,14.92
2016-05-07T05:18:35.366Z,15.02
2016-05-07T05:19:35.385Z,14.96
2016-05-07T05:20:35.402Z,15
2016-05-07T05:21:35.422Z,14.97
2016-05-07T05:22:35.439Z,14.96
2016-05-07T05:23:35.473Z,14.99
2016-05-07T05:24:35.491Z,14.86
2016-05-07T05:25:35.369Z,14.99
2016-05-07T05:26:35.543Z,15.03
2016-05-07T05:27:35.562Z,14.96
2016-05-07T05:28:35.580Z,15
2016-05-07T05:29:35.599Z,15.07
2016-05-07T05:30:35.632Z,14.99
2016-05-07T05:31:35.492Z,15.04
2016-05-07T05:32:35.682Z,15
2016-05-07T05:33:35.701Z,15.04
2016-05-07T05:34:35.718Z,15.15
2016-05-07T05:35:35.737Z,15.14
2016-05-07T05:36:35.615Z,15.09
2016-05-07T05:37:35.617Z,15.06
2016-05-07T05:38:35.651Z,15.1
2016-05-07T05:39:35.826Z,15.09
2016-05-07T05:40:35.844Z,15.21
2016-05-07T05:41:35.879Z,15.17
2016-05-07T05:42:36.367Z,15.11
2016-05-07T05:43:35.914Z,15.21
2016-05-07T05:44:35.793Z,15.24
2016-05-07T05:45:35.811Z,15.17
2016-05-07T05:46:35.986Z,15.19
2016-05-07T05:47:36.003Z,15.24
2016-05-07T05:48:36.038Z,15.24
2016-05-07T05:49:36.056Z,15.24
2016-05-07T05:50:35.933Z,15.15
2016-05-07T05:51:36.108Z,15.29
2016-05-07T05:52:36.127Z,15.28
2016-05-07T05:53:36.145Z,15.33
2016-05-07T05:54:36.163Z,15.33
2016-05-07T05:55:36.197Z,15.42
2016-05-07T05:56:36.216Z,15.37
2016-05-07T05:57:36.640Z,15.43
2016-05-07T05:58:36.127Z,15.44
2016-05-07T05:59:36.130Z,15.49
2016-05-07T06:00:36.321Z,15.58
2016-05-07T06:01:36.323Z,15.51
2016-05-07T06:02:36.216Z,15.58
2016-05-07T06:03:36.375Z,15.49
2016-05-07T06:04:36.393Z,15.61
2016-05-07T06:05:36.256Z,15.65
2016-05-07T06:06:36.430Z,15.68
2016-05-07T06:07:36.464Z,15.72
2016-05-07T06:08:36.326Z,15.72
2016-05-07T06:09:36.501Z,15.76
2016-05-07T06:10:36.379Z,15.79
2016-05-07T06:11:36.553Z,15.82
2016-05-07T06:12:36.586Z,15.86
2016-05-07T06:13:36.605Z,15.92
2016-05-07T06:14:36.467Z,15.92
2016-05-07T06:15:36.642Z,15.95
2016-05-07T06:16:36.676Z,16.02
2016-05-07T06:17:36.694Z,16.05
2016-05-07T06:18:36.712Z,16.02
2016-05-07T06:19:36.731Z,16.15
2016-05-07T06:20:36.765Z,16.12
2016-05-07T06:21:36.705Z,16.12
2016-05-07T06:22:36.802Z,16.17
2016-05-07T06:23:36.663Z,16.29
2016-05-07T06:24:36.853Z,16.28
2016-05-07T06:25:36.856Z,16.38
2016-05-07T06:26:36.890Z,16.42
2016-05-07T06:27:38.752Z,16.43
2016-05-07T06:28:36.802Z,16.47
2016-05-07T06:29:36.820Z,16.43
2016-05-07T06:30:36.979Z,16.51
2016-05-07T06:31:36.996Z,16.57
2016-05-07T06:32:37.046Z,16.6
2016-05-07T06:33:37.050Z,16.68
2016-05-07T06:34:37.068Z,16.61
2016-05-07T06:35:37.101Z,16.75
2016-05-07T06:36:37.121Z,16.83
2016-05-07T06:37:37.138Z,16.78
2016-05-07T06:38:37.173Z,16.83
2016-05-07T06:39:37.284Z,16.91
2016-05-07T06:40:37.225Z,16.97
2016-05-07T06:41:37.259Z,17.02
2016-05-07T06:42:38.136Z,17.08
2016-05-07T06:43:37.123Z,17.04
2016-05-07T06:44:37.156Z,17.14
2016-05-07T06:45:37.331Z,17.23
2016-05-07T06:46:37.350Z,17.22
2016-05-07T06:47:37.369Z,17.22
2016-05-07T06:48:37.403Z,17.26
2016-05-07T06:49:37.420Z,17.41
2016-05-07T06:50:37.439Z,17.34
2016-05-07T06:51:37.458Z,17.54
2016-05-07T06:52:37.491Z,17.51
2016-05-07T06:53:37.525Z,17.54
2016-05-07T06:54:37.544Z,17.64
2016-05-07T06:55:37.561Z,17.68
2016-05-07T06:56:37.580Z,17.72
2016-05-07T06:57:37.973Z,17.76
2016-05-07T06:58:37.695Z,17.86
2016-05-07T06:59:37.651Z,17.89
2016-05-07T07:00:37.574Z,17.98
2016-05-07T07:01:37.702Z,18
2016-05-07T07:02:37.565Z,18.03
2016-05-07T07:03:37.740Z,18.03
2016-05-07T07:04:37.633Z,18.16
2016-05-07T07:05:37.635Z,18.18
2016-05-07T07:06:37.810Z,18.33
2016-05-07T07:07:37.828Z,18.35
2016-05-07T07:08:37.863Z,18.37
2016-05-07T07:09:39.162Z,18.45
2016-05-07T07:10:37.930Z,18.5
2016-05-07T07:11:37.949Z,18.6
2016-05-07T07:12:38.811Z,18.6
2016-05-07T07:13:38.298Z,18.7
2016-05-07T07:14:38.175Z,18.77
2016-05-07T07:15:38.225Z,18.78
2016-05-07T07:16:38.461Z,18.89
2016-05-07T07:17:38.293Z,18.96
2016-05-07T07:18:38.593Z,18.9
2016-05-07T07:19:38.064Z,19.04
2016-05-07T07:20:38.332Z,19.14
2016-05-07T07:21:39.194Z,19.21
2016-05-07T07:22:39.916Z,19.26
2016-05-07T07:23:38.216Z,19.33
2016-05-07T07:24:38.094Z,19.36
2016-05-07T07:25:38.142Z,19.56
2016-05-07T07:26:40.036Z,19.52
2016-05-07T07:27:39.491Z,19.64
2016-05-07T07:28:38.666Z,19.64
2016-05-07T07:29:38.215Z,19.59
2016-05-07T07:30:38.516Z,19.74
2016-05-07T07:31:38.425Z,19.76
2016-05-07T07:32:38.443Z,19.94
2016-05-07T07:33:38.460Z,19.92
2016-05-07T07:34:38.495Z,20.04
2016-05-07T07:35:38.357Z,20.04
2016-05-07T07:36:38.547Z,20.16
2016-05-07T07:37:38.566Z,20.16
2016-05-07T07:38:38.584Z,20.31
2016-05-07T07:39:38.462Z,20.29
2016-05-07T07:40:38.636Z,20.44
2016-05-07T07:41:38.529Z,20.51
2016-05-07T07:42:38.688Z,20.48
2016-05-07T07:43:38.707Z,20.55
2016-05-07T07:44:38.740Z,20.59
2016-05-07T07:45:38.759Z,20.67
2016-05-07T07:46:38.636Z,20.74
2016-05-07T07:47:38.717Z,20.77
2016-05-07T07:48:38.689Z,20.9
2016-05-07T07:49:38.864Z,20.93
2016-05-07T07:50:38.897Z,20.92
2016-05-07T07:51:38.900Z,21
2016-05-07T07:52:38.683Z,21.14
2016-05-07T07:53:38.797Z,21.24
2016-05-07T07:54:38.986Z,21.25
2016-05-07T07:55:39.005Z,21.32
2016-05-07T07:56:39.039Z,21.39
2016-05-07T07:57:39.072Z,21.43
2016-05-07T07:58:39.075Z,21.42
2016-05-07T07:59:39.124Z,21.52
2016-05-07T08:00:39.143Z,21.67
2016-05-07T08:01:39.161Z,21.8
2016-05-07T08:02:39.180Z,21.82
2016-05-07T08:03:39.213Z,21.98
2016-05-07T08:04:39.232Z,22.06
2016-05-07T08:05:39.343Z,22.11
2016-05-07T08:06:39.316Z,22.28
2016-05-07T08:07:39.162Z,22.3
2016-05-07T08:08:39.290Z,22.41
2016-05-07T08:09:39.464Z,22.55
2016-05-07T08:10:39.498Z,22.41
2016-05-07T08:11:39.501Z,22.48
2016-05-07T08:12:40.081Z,22.63
2016-05-07T08:13:39.521Z,22.68
2016-05-07T08:14:39.399Z,22.78
2016-05-07T08:15:39.526Z,22.8
2016-05-07T08:16:39.546Z,22.88
2016-05-07T08:17:39.579Z,23.02
2016-05-07T08:18:39.613Z,23.09
2016-05-07T08:19:39.616Z,23.13
2016-05-07T08:20:39.665Z,23.2
2016-05-07T08:21:39.606Z,23.36
2016-05-07T08:22:39.703Z,23.23
2016-05-07T08:23:39.720Z,23.37
2016-05-07T08:24:39.754Z,23.46
2016-05-07T08:25:39.772Z,23.58
2016-05-07T08:26:39.807Z,23.61
2016-05-07T08:27:40.169Z,23.68
2016-05-07T08:28:39.858Z,23.74
2016-05-07T08:29:39.898Z,23.78
2016-05-07T08:30:39.958Z,23.91
2016-05-07T08:31:40.021Z,23.95
2016-05-07T08:32:39.941Z,23.96
2016-05-07T08:33:40.174Z,24.08
2016-05-07T08:34:40.232Z,24.23
2016-05-07T08:35:40.281Z,24.26
2016-05-07T08:36:40.175Z,24.38
2016-05-07T08:37:40.349Z,24.47
2016-05-07T08:38:40.398Z,24.55
2016-05-07T08:39:40.290Z,24.53
2016-05-07T08:40:40.471Z,24.57
2016-05-07T08:41:40.510Z,24.68
2016-05-07T08:42:40.675Z,24.68
2016-05-07T08:43:40.574Z,24.73
2016-05-07T08:44:40.613Z,24.88
2016-05-07T08:45:40.634Z,24.86
2016-05-07T08:46:40.514Z,24.93
2016-05-07T08:47:40.689Z,24.98
2016-05-07T08:48:40.725Z,25.08
2016-05-07T08:49:40.746Z,25.13
2016-05-07T08:50:40.827Z,25.18
2016-05-07T08:51:40.674Z,25.29
2016-05-07T08:52:40.881Z,25.31
2016-05-07T08:53:40.884Z,25.47
2016-05-07T08:54:40.903Z,25.44
2016-05-07T08:55:40.922Z,25.59
2016-05-07T08:56:40.941Z,25.58
2016-05-07T08:57:41.085Z,25.6
2016-05-07T08:58:41.010Z,25.7
2016-05-07T08:59:41.044Z,25.7
2016-05-07T09:00:41.062Z,25.7
2016-05-07T09:01:41.096Z,25.83
2016-05-07T09:02:40.958Z,25.85
2016-05-07T09:03:41.148Z,25.96
2016-05-07T09:04:41.183Z,26.05
2016-05-07T09:05:41.216Z,26.06
2016-05-07T09:06:41.235Z,26.22
2016-05-07T09:07:41.252Z,26.06
2016-05-07T09:08:41.287Z,26.22
2016-05-07T09:09:41.305Z,26.28
2016-05-07T09:10:41.355Z,26.4
2016-05-07T09:11:41.373Z,26.45
2016-05-07T09:12:41.251Z,26.52
2016-05-07T09:13:41.425Z,26.55
2016-05-07T09:14:41.460Z,26.65
2016-05-07T09:15:41.556Z,26.7
2016-05-07T09:16:41.512Z,26.63
2016-05-07T09:17:41.545Z,26.71
2016-05-07T09:18:41.423Z,26.81
2016-05-07T09:19:41.598Z,26.77
2016-05-07T09:20:41.632Z,26.81
2016-05-07T09:21:41.665Z,26.89
2016-05-07T09:22:41.699Z,26.95
2016-05-07T09:23:41.406Z,26.96
2016-05-07T09:24:41.752Z,27.07
2016-05-07T09:25:41.630Z,27.02
2016-05-07T09:26:41.758Z,27.05
2016-05-07T09:27:42.072Z,27.05
2016-05-07T09:28:41.872Z,27.17
2016-05-07T09:29:41.844Z,27.17
2016-05-07T09:30:41.924Z,27.27
2016-05-07T09:31:41.958Z,27.37
2016-05-07T09:32:41.976Z,27.47
2016-05-07T09:33:41.885Z,27.45
2016-05-07T09:34:42.044Z,27.63
2016-05-07T09:35:42.063Z,27.64
2016-05-07T09:36:42.097Z,27.75
2016-05-07T09:37:42.130Z,27.78
2016-05-07T09:38:42.165Z,27.87
2016-05-07T09:39:42.182Z,27.92
2016-05-07T09:40:42.216Z,27.96
2016-05-07T09:41:42.094Z,27.96
2016-05-07T09:42:42.722Z,28.07
2016-05-07T09:43:42.318Z,28.22
2016-05-07T09:44:42.337Z,28.2
2016-05-07T09:45:42.355Z,28.2
2016-05-07T09:46:42.390Z,28.26
2016-05-07T09:47:42.423Z,28.32
2016-05-07T09:48:42.145Z,28.37
2016-05-07T09:49:42.475Z,28.41
2016-05-07T09:50:42.353Z,28.42
2016-05-07T09:51:42.543Z,28.51
2016-05-07T09:52:42.578Z,28.59
2016-05-07T09:53:42.611Z,28.76
2016-05-07T09:54:42.629Z,28.79
2016-05-07T09:55:42.663Z,28.86
2016-05-07T09:56:42.698Z,28.86
2016-05-07T09:57:43.450Z,29.02
2016-05-07T09:58:42.765Z,29.01
2016-05-07T09:59:42.799Z,29.12
2016-05-07T10:00:42.817Z,29.17
2016-05-07T10:01:42.695Z,29.13
2016-05-07T10:02:42.886Z,29.34
2016-05-07T10:03:42.763Z,29.29
2016-05-07T10:04:42.781Z,29.31
2016-05-07T10:05:43.081Z,29.38
2016-05-07T10:06:43.005Z,29.44
2016-05-07T10:07:43.039Z,29.5
2016-05-07T10:08:43.074Z,29.53
2016-05-07T10:09:43.091Z,29.54
2016-05-07T10:10:43.141Z,29.6
2016-05-07T10:11:43.160Z,29.66
2016-05-07T10:12:43.443Z,29.68
2016-05-07T10:13:43.227Z,29.78
2016-05-07T10:14:43.262Z,29.79
2016-05-07T10:15:43.123Z,29.87
2016-05-07T10:16:43.313Z,29.86
2016-05-07T10:17:43.348Z,29.9
2016-05-07T10:18:43.382Z,29.98
2016-05-07T10:19:43.243Z,30.02
2016-05-07T10:20:43.449Z,30.06
2016-05-07T10:21:43.484Z,30.1
2016-05-07T10:22:43.501Z,30.12
2016-05-07T10:23:43.535Z,30.16
2016-05-07T10:24:43.584Z,30.15
2016-05-07T10:25:43.604Z,30.25
2016-05-07T10:26:43.653Z,30.28
2016-05-07T10:27:44.603Z,30.34
2016-05-07T10:28:43.701Z,30.37
2016-05-07T10:29:43.734Z,30.32
2016-05-07T10:30:43.752Z,30.35
2016-05-07T10:31:43.803Z,30.35
2016-05-07T10:32:43.680Z,30.47
2016-05-07T10:33:43.855Z,30.53
2016-05-07T10:34:43.732Z,30.53
2016-05-07T10:35:43.611Z,30.53
2016-05-07T10:36:43.800Z,30.55
2016-05-07T10:37:43.974Z,30.66
2016-05-07T10:38:44.025Z,30.59
2016-05-07T10:39:43.902Z,30.7
2016-05-07T10:40:44.076Z,30.72
2016-05-07T10:41:44.110Z,30.81
2016-05-07T10:42:44.004Z,30.84
2016-05-07T10:43:44.194Z,30.92
2016-05-07T10:44:44.212Z,30.92
2016-05-07T10:45:44.246Z,30.91
2016-05-07T10:46:44.280Z,31
2016-05-07T10:47:44.313Z,31.02
2016-05-07T10:48:44.348Z,30.99
2016-05-07T10:49:44.366Z,31.12
2016-05-07T10:50:44.401Z,31.15
2016-05-07T10:51:44.449Z,31.12
2016-05-07T10:52:44.468Z,31.17
2016-05-07T10:53:44.502Z,31.27
2016-05-07T10:54:44.223Z,31.28
2016-05-07T10:55:44.570Z,31.33
2016-05-07T10:56:44.603Z,31.37
2016-05-07T10:57:44.498Z,31.39
2016-05-07T10:58:44.687Z,31.37
2016-05-07T10:59:44.705Z,31.44
2016-05-07T11:00:44.584Z,31.42
2016-05-07T11:01:44.773Z,31.49
2016-05-07T11:02:44.791Z,31.61
2016-05-07T11:03:44.825Z,31.56
2016-05-07T11:04:44.876Z,31.61
2016-05-07T11:05:44.894Z,31.61
2016-05-07T11:06:44.943Z,31.69
2016-05-07T11:07:44.978Z,31.77
2016-05-07T11:08:44.995Z,31.77
2016-05-07T11:09:45.044Z,31.78
2016-05-07T11:10:45.079Z,31.8
2016-05-07T11:11:45.113Z,31.85
2016-05-07T11:12:45.147Z,31.84
2016-05-07T11:13:45.165Z,31.81
2016-05-07T11:14:45.199Z,31.84
2016-05-07T11:15:45.233Z,31.85
2016-05-07T11:16:45.266Z,31.81
2016-05-07T11:17:45.301Z,31.92
2016-05-07T11:18:45.351Z,31.97
2016-05-07T11:19:45.385Z,31.96
2016-05-07T11:20:45.402Z,31.87
2016-05-07T11:21:45.437Z,31.94
2016-05-07T11:22:45.470Z,31.97
2016-05-07T11:23:45.692Z,32.03
2016-05-07T11:24:45.538Z,32.09
2016-05-07T11:25:45.573Z,32
2016-05-07T11:26:45.465Z,32.09
2016-05-07T11:27:45.515Z,32.11
2016-05-07T11:28:45.674Z,32.12
2016-05-07T11:29:45.708Z,32.16
2016-05-07T11:30:45.742Z,32.19
2016-05-07T11:31:45.620Z,32.21
2016-05-07T11:32:45.809Z,32.29
2016-05-07T11:33:45.845Z,32.21
2016-05-07T11:34:45.878Z,32.16
2016-05-07T11:35:45.912Z,32.18
2016-05-07T11:36:45.945Z,32.15
2016-05-07T11:37:45.979Z,32.19
2016-05-07T11:38:46.014Z,32.18
2016-05-07T11:39:46.078Z,32.21
2016-05-07T11:40:45.925Z,32.16
2016-05-07T11:41:45.958Z,32.21
2016-05-07T11:42:46.009Z,32.19
2016-05-07T11:43:46.043Z,32.16
2016-05-07T11:44:46.232Z,32.3
2016-05-07T11:45:46.267Z,32.3
2016-05-07T11:46:46.144Z,32.23
2016-05-07T11:47:46.335Z,32.27
2016-05-07T11:48:46.368Z,32.29
2016-05-07T11:49:46.402Z,32.31
2016-05-07T11:50:46.452Z,32.31
2016-05-07T11:51:46.486Z,32.33
2016-05-07T11:52:46.348Z,32.36
2016-05-07T11:53:46.538Z,32.46
2016-05-07T11:54:46.416Z,32.46
2016-05-07T11:55:46.606Z,32.45
2016-05-07T11:56:46.656Z,32.45
2016-05-07T11:57:46.533Z,32.55
2016-05-07T11:58:46.709Z,32.51
2016-05-07T11:59:46.742Z,32.56
2016-05-07T12:00:46.776Z,32.67
2016-05-07T12:01:46.653Z,32.6
2016-05-07T12:02:46.859Z,32.68
2016-05-07T12:03:46.909Z,32.74
2016-05-07T12:04:46.927Z,32.73
2016-05-07T12:05:46.961Z,32.68
2016-05-07T12:06:46.995Z,32.73
2016-05-07T12:07:47.029Z,32.82
2016-05-07T12:08:47.063Z,32.73
2016-05-07T12:09:47.113Z,32.77
2016-05-07T12:10:47.131Z,32.85
2016-05-07T12:11:47.164Z,32.68
2016-05-07T12:12:47.042Z,32.71
2016-05-07T12:13:47.233Z,32.73
2016-05-07T12:14:47.266Z,32.75
2016-05-07T12:15:47.300Z,32.64
2016-05-07T12:16:47.335Z,32.63
2016-05-07T12:17:47.384Z,32.67
2016-05-07T12:18:47.262Z,32.71
2016-05-07T12:19:47.452Z,32.74
2016-05-07T12:20:47.486Z,32.77
2016-05-07T12:21:47.363Z,32.67
2016-05-07T12:22:47.398Z,32.82
2016-05-07T12:23:47.588Z,32.78
2016-05-07T12:24:47.621Z,32.82
2016-05-07T12:25:47.656Z,32.97
2016-05-07T12:26:47.533Z,32.96
2016-05-07T12:27:48.177Z,32.97
2016-05-07T12:28:47.460Z,33
2016-05-07T12:29:47.792Z,33.02
2016-05-07T12:30:47.840Z,33.01
2016-05-07T12:31:47.875Z,33.04
2016-05-07T12:32:47.753Z,33
2016-05-07T12:33:47.942Z,33.07
2016-05-07T12:34:47.977Z,33.04
2016-05-07T12:35:48.025Z,33.04
2016-05-07T12:36:48.045Z,33.02
2016-05-07T12:37:47.922Z,33.07
2016-05-07T12:38:48.112Z,33.07
2016-05-07T12:39:48.005Z,33.09
2016-05-07T12:40:48.040Z,33.15
2016-05-07T12:41:48.230Z,33.23
2016-05-07T12:42:48.577Z,33.19
2016-05-07T12:43:48.297Z,33.15
2016-05-07T12:44:48.019Z,33.17
2016-05-07T12:45:48.366Z,33.2
2016-05-07T12:46:48.400Z,33.23
2016-05-07T12:47:48.433Z,33.22
2016-05-07T12:48:48.327Z,33.3
2016-05-07T12:49:48.517Z,33.27
2016-05-07T12:50:48.551Z,33.27
2016-05-07T12:51:48.429Z,33.32
2016-05-07T12:52:48.618Z,33.31
2016-05-07T12:53:48.496Z,33.36
2016-05-07T12:54:48.686Z,33.43
2016-05-07T12:55:48.737Z,33.37